sensor_id;sensor_type;location;lat;lon;timestamp;P1;durP1;ratioP1;P2;durP2;ratioP2
74679;SDS011;63211;48.548;2.704;2024-03-23T00:52:11;0.50;;;0.05;;
74679;SDS011;63211;48.548;2.704;2024-03-23T00:54:37;0.68;;;0.20;;
74679;SDS011;63211;48.548;2.704;2024-03-23T00:57:03;0.77;;;0.15;;
74679;SDS011;63211;48.548;2.704;2024-03-23T00:59:29;0.80;;;0.10;;
74679;SDS011;63211;48.548;2.704;2024-03-23T01:01:56;0.10;;;0.00;;
74679;SDS011;63211;48.548;2.704;2024-03-23T01:04:22;1.17;;;0.30;;
74679;SDS011;63211;48.548;2.704;2024-03-23T01:06:48;1.13;;;0.28;;
74679;SDS011;63211;48.548;2.704;2024-03-23T01:09:15;0.35;;;0.10;;
74679;SDS011;63211;48.548;2.704;2024-03-23T01:11:42;0.17;;;0.10;;
74679;SDS011;63211;48.548;2.704;2024-03-23T01:14:07;0.35;;;0.10;;
74679;SDS011;63211;48.548;2.704;2024-03-23T01:16:34;0.88;;;0.20;;
74679;SDS011;63211;48.548;2.704;2024-03-23T01:18:59;0.15;;;0.05;;
74679;SDS011;63211;48.548;2.704;2024-03-23T01:21:26;0.20;;;0.00;;
74679;SDS011;63211;48.548;2.704;2024-03-23T01:23:52;0.65;;;0.30;;
74679;SDS011;63211;48.548;2.704;2024-03-23T01:26:20;0.10;;;0.10;;
74679;SDS011;63211;48.548;2.704;2024-03-23T01:28:45;1.65;;;0.30;;
74679;SDS011;63211;48.548;2.704;2024-03-23T01:31:12;1.13;;;0.10;;
74679;SDS011;63211;48.548;2.704;2024-03-23T01:33:37;0.50;;;0.45;;
74679;SDS011;63211;48.548;2.704;2024-03-23T01:36:04;0.52;;;0.30;;
74679;SDS011;63211;48.548;2.704;2024-03-23T01:38:30;0.08;;;0.08;;
74679;SDS011;63211;48.548;2.704;2024-03-23T01:40:57;0.57;;;0.25;;
74679;SDS011;63211;48.548;2.704;2024-03-23T01:43:24;0.90;;;0.30;;
74679;SDS011;63211;48.548;2.704;2024-03-23T01:45:51;1.65;;;0.20;;
74679;SDS011;63211;48.548;2.704;2024-03-23T01:48:18;0.28;;;0.10;;
74679;SDS011;63211;48.548;2.704;2024-03-23T01:50:45;0.40;;;0.10;;
74679;SDS011;63211;48.548;2.704;2024-03-23T01:53:11;0.20;;;0.05;;
74679;SDS011;63211;48.548;2.704;2024-03-23T01:58:07;1.73;;;0.30;;
74679;SDS011;63211;48.548;2.704;2024-03-23T02:00:35;0.52;;;0.20;;
74679;SDS011;63211;48.548;2.704;2024-03-23T02:03:01;1.23;;;0.20;;
74679;SDS011;63211;48.548;2.704;2024-03-23T02:05:27;0.55;;;0.20;;
74679;SDS011;63211;48.548;2.704;2024-03-23T02:07:53;0.73;;;0.20;;
74679;SDS011;63211;48.548;2.704;2024-03-23T02:10:20;0.90;;;0.10;;
74679;SDS011;63211;48.548;2.704;2024-03-23T02:12:46;0.63;;;0.35;;
74679;SDS011;63211;48.548;2.704;2024-03-23T02:15:12;0.38;;;0.38;;
74679;SDS011;63211;48.548;2.704;2024-03-23T02:17:39;1.48;;;0.30;;
74679;SDS011;63211;48.548;2.704;2024-03-23T02:20:06;1.05;;;0.20;;
74679;SDS011;63211;48.548;2.704;2024-03-23T02:22:35;0.80;;;0.30;;
74679;SDS011;63211;48.548;2.704;2024-03-23T02:25:05;0.80;;;0.32;;
74679;SDS011;63211;48.548;2.704;2024-03-23T02:27:31;0.75;;;0.45;;
74679;SDS011;63211;48.548;2.704;2024-03-23T02:29:58;1.13;;;0.43;;
74679;SDS011;63211;48.548;2.704;2024-03-23T02:32:23;1.20;;;0.30;;
74679;SDS011;63211;48.548;2.704;2024-03-23T02:34:50;1.00;;;0.38;;
74679;SDS011;63211;48.548;2.704;2024-03-23T02:37:15;0.40;;;0.20;;
74679;SDS011;63211;48.548;2.704;2024-03-23T02:39:42;1.15;;;0.30;;
74679;SDS011;63211;48.548;2.704;2024-03-23T02:42:09;1.40;;;0.50;;
74679;SDS011;63211;48.548;2.704;2024-03-23T02:44:35;0.63;;;0.30;;
74679;SDS011;63211;48.548;2.704;2024-03-23T02:47:01;1.58;;;0.40;;
74679;SDS011;63211;48.548;2.704;2024-03-23T02:49:27;1.70;;;0.68;;
74679;SDS011;63211;48.548;2.704;2024-03-23T02:51:53;0.88;;;0.32;;
74679;SDS011;63211;48.548;2.704;2024-03-23T02:54:20;0.80;;;0.52;;
74679;SDS011;63211;48.548;2.704;2024-03-23T02:56:45;1.30;;;0.30;;
74679;SDS011;63211;48.548;2.704;2024-03-23T02:59:13;0.55;;;0.25;;
74679;SDS011;63211;48.548;2.704;2024-03-23T03:01:39;0.40;;;0.13;;
74679;SDS011;63211;48.548;2.704;2024-03-23T03:04:05;1.13;;;0.20;;
74679;SDS011;63211;48.548;2.704;2024-03-23T03:06:31;1.20;;;0.20;;
74679;SDS011;63211;48.548;2.704;2024-03-23T03:08:58;0.50;;;0.20;;
74679;SDS011;63211;48.548;2.704;2024-03-23T03:11:23;2.25;;;0.35;;
74679;SDS011;63211;48.548;2.704;2024-03-23T03:13:50;1.42;;;0.30;;
74679;SDS011;63211;48.548;2.704;2024-03-23T03:16:17;0.80;;;0.25;;
74679;SDS011;63211;48.548;2.704;2024-03-23T03:18:44;1.17;;;0.28;;
74679;SDS011;63211;48.548;2.704;2024-03-23T03:21:11;1.13;;;0.20;;
74679;SDS011;63211;48.548;2.704;2024-03-23T03:23:38;0.73;;;0.20;;
74679;SDS011;63211;48.548;2.704;2024-03-23T03:26:04;0.70;;;0.40;;
74679;SDS011;63211;48.548;2.704;2024-03-23T03:28:30;0.95;;;0.30;;
74679;SDS011;63211;48.548;2.704;2024-03-23T03:30:57;0.65;;;0.22;;
74679;SDS011;63211;48.548;2.704;2024-03-23T03:33:25;1.13;;;0.20;;
74679;SDS011;63211;48.548;2.704;2024-03-23T03:35:51;0.60;;;0.20;;
74679;SDS011;63211;48.548;2.704;2024-03-23T03:38:18;0.95;;;0.20;;
74679;SDS011;63211;48.548;2.704;2024-03-23T03:40:43;1.05;;;0.30;;
74679;SDS011;63211;48.548;2.704;2024-03-23T03:43:10;0.73;;;0.25;;
74679;SDS011;63211;48.548;2.704;2024-03-23T03:45:37;0.50;;;0.20;;
74679;SDS011;63211;48.548;2.704;2024-03-23T03:48:03;0.63;;;0.35;;
74679;SDS011;63211;48.548;2.704;2024-03-23T03:50:31;1.17;;;0.30;;
74679;SDS011;63211;48.548;2.704;2024-03-23T03:52:57;0.50;;;0.20;;
74679;SDS011;63211;48.548;2.704;2024-03-23T03:55:23;0.82;;;0.30;;
74679;SDS011;63211;48.548;2.704;2024-03-23T03:57:49;0.77;;;0.20;;
74679;SDS011;63211;48.548;2.704;2024-03-23T04:00:15;0.70;;;0.38;;
74679;SDS011;63211;48.548;2.704;2024-03-23T04:02:41;1.42;;;0.20;;
74679;SDS011;63211;48.548;2.704;2024-03-23T04:05:08;1.05;;;0.20;;
74679;SDS011;63211;48.548;2.704;2024-03-23T04:07:35;1.85;;;0.30;;
74679;SDS011;63211;48.548;2.704;2024-03-23T04:10:01;0.32;;;0.20;;
74679;SDS011;63211;48.548;2.704;2024-03-23T04:12:32;0.80;;;0.30;;
74679;SDS011;63211;48.548;2.704;2024-03-23T04:14:58;1.00;;;0.10;;
74679;SDS011;63211;48.548;2.704;2024-03-23T04:17:24;1.58;;;0.30;;
74679;SDS011;63211;48.548;2.704;2024-03-23T04:19:54;0.88;;;0.20;;
74679;SDS011;63211;48.548;2.704;2024-03-23T04:22:21;0.90;;;0.20;;
74679;SDS011;63211;48.548;2.704;2024-03-23T04:24:50;0.65;;;0.20;;
74679;SDS011;63211;48.548;2.704;2024-03-23T04:27:16;0.25;;;0.10;;
74679;SDS011;63211;48.548;2.704;2024-03-23T04:29:42;0.10;;;0.00;;
74679;SDS011;63211;48.548;2.704;2024-03-23T04:32:12;1.27;;;0.40;;
74679;SDS011;63211;48.548;2.704;2024-03-23T04:34:39;0.73;;;0.20;;
74679;SDS011;63211;48.548;2.704;2024-03-23T04:37:05;0.70;;;0.20;;
74679;SDS011;63211;48.548;2.704;2024-03-23T04:39:32;2.05;;;0.60;;
74679;SDS011;63211;48.548;2.704;2024-03-23T04:41:59;1.08;;;0.30;;
74679;SDS011;63211;48.548;2.704;2024-03-23T04:44:27;0.60;;;0.10;;
74679;SDS011;63211;48.548;2.704;2024-03-23T04:46:54;1.58;;;0.38;;
74679;SDS011;63211;48.548;2.704;2024-03-23T04:49:21;1.45;;;0.20;;
74679;SDS011;63211;48.548;2.704;2024-03-23T04:51:47;0.57;;;0.10;;
74679;SDS011;63211;48.548;2.704;2024-03-23T04:54:14;1.10;;;0.30;;
74679;SDS011;63211;48.548;2.704;2024-03-23T04:56:41;1.20;;;0.20;;
74679;SDS011;63211;48.548;2.704;2024-03-23T04:59:09;1.08;;;0.22;;
74679;SDS011;63211;48.548;2.704;2024-03-23T05:01:35;1.20;;;0.30;;
74679;SDS011;63211;48.548;2.704;2024-03-23T05:04:03;0.93;;;0.28;;
74679;SDS011;63211;48.548;2.704;2024-03-23T05:06:29;0.80;;;0.20;;
74679;SDS011;63211;48.548;2.704;2024-03-23T05:08:56;1.17;;;0.25;;
74679;SDS011;63211;48.548;2.704;2024-03-23T05:11:21;1.15;;;0.28;;
74679;SDS011;63211;48.548;2.704;2024-03-23T05:13:48;0.85;;;0.10;;
74679;SDS011;63211;48.548;2.704;2024-03-23T05:16:15;0.80;;;0.20;;
74679;SDS011;63211;48.548;2.704;2024-03-23T05:18:41;0.65;;;0.17;;
74679;SDS011;63211;48.548;2.704;2024-03-23T05:21:07;1.73;;;0.47;;
74679;SDS011;63211;48.548;2.704;2024-03-23T05:23:33;1.05;;;0.20;;
74679;SDS011;63211;48.548;2.704;2024-03-23T05:25:59;1.58;;;0.17;;
74679;SDS011;63211;48.548;2.704;2024-03-23T05:28:26;3.15;;;0.45;;
74679;SDS011;63211;48.548;2.704;2024-03-23T05:30:51;1.48;;;0.30;;
74679;SDS011;63211;48.548;2.704;2024-03-23T05:33:20;0.98;;;0.10;;
74679;SDS011;63211;48.548;2.704;2024-03-23T05:35:46;0.50;;;0.13;;
74679;SDS011;63211;48.548;2.704;2024-03-23T05:38:13;1.40;;;0.10;;
74679;SDS011;63211;48.548;2.704;2024-03-23T05:40:38;1.35;;;0.10;;
74679;SDS011;63211;48.548;2.704;2024-03-23T05:43:05;2.30;;;0.17;;
74679;SDS011;63211;48.548;2.704;2024-03-23T05:45:31;1.65;;;0.20;;
74679;SDS011;63211;48.548;2.704;2024-03-23T05:47:58;2.00;;;0.20;;
74679;SDS011;63211;48.548;2.704;2024-03-23T05:50:25;1.33;;;0.10;;
74679;SDS011;63211;48.548;2.704;2024-03-23T05:52:51;1.33;;;0.30;;
74679;SDS011;63211;48.548;2.704;2024-03-23T05:55:17;0.80;;;0.10;;
74679;SDS011;63211;48.548;2.704;2024-03-23T05:57:44;1.20;;;0.10;;
74679;SDS011;63211;48.548;2.704;2024-03-23T06:00:10;0.30;;;0.00;;
74679;SDS011;63211;48.548;2.704;2024-03-23T06:02:41;0.43;;;0.10;;
74679;SDS011;63211;48.548;2.704;2024-03-23T06:05:09;0.65;;;0.20;;
74679;SDS011;63211;48.548;2.704;2024-03-23T06:07:37;1.17;;;0.28;;
74679;SDS011;63211;48.548;2.704;2024-03-23T06:10:03;1.50;;;0.15;;
74679;SDS011;63211;48.548;2.704;2024-03-23T06:12:30;0.45;;;0.10;;
74679;SDS011;63211;48.548;2.704;2024-03-23T06:14:56;0.55;;;0.22;;
74679;SDS011;63211;48.548;2.704;2024-03-23T06:17:22;1.20;;;0.20;;
74679;SDS011;63211;48.548;2.704;2024-03-23T06:19:48;0.55;;;0.10;;
74679;SDS011;63211;48.548;2.704;2024-03-23T06:22:15;1.02;;;0.40;;
74679;SDS011;63211;48.548;2.704;2024-03-23T06:24:42;0.75;;;0.20;;
74679;SDS011;63211;48.548;2.704;2024-03-23T06:27:08;0.40;;;0.10;;
74679;SDS011;63211;48.548;2.704;2024-03-23T06:29:34;1.52;;;0.10;;
74679;SDS011;63211;48.548;2.704;2024-03-23T06:32:01;1.25;;;0.20;;
74679;SDS011;63211;48.548;2.704;2024-03-23T06:34:28;0.63;;;0.22;;
74679;SDS011;63211;48.548;2.704;2024-03-23T06:36:55;1.33;;;0.03;;
74679;SDS011;63211;48.548;2.704;2024-03-23T06:39:20;0.52;;;0.10;;
74679;SDS011;63211;48.548;2.704;2024-03-23T06:41:52;0.38;;;0.30;;
74679;SDS011;63211;48.548;2.704;2024-03-23T06:44:19;0.50;;;0.10;;
74679;SDS011;63211;48.548;2.704;2024-03-23T06:46:45;0.30;;;0.10;;
74679;SDS011;63211;48.548;2.704;2024-03-23T06:49:11;1.20;;;0.17;;
74679;SDS011;63211;48.548;2.704;2024-03-23T06:51:38;0.20;;;0.00;;
74679;SDS011;63211;48.548;2.704;2024-03-23T06:54:04;0.32;;;0.10;;
74679;SDS011;63211;48.548;2.704;2024-03-23T06:56:31;0.40;;;0.00;;
74679;SDS011;63211;48.548;2.704;2024-03-23T06:58:58;1.05;;;0.35;;
74679;SDS011;63211;48.548;2.704;2024-03-23T07:01:25;1.33;;;0.20;;
74679;SDS011;63211;48.548;2.704;2024-03-23T07:03:51;0.55;;;0.20;;
74679;SDS011;63211;48.548;2.704;2024-03-23T07:06:17;0.85;;;0.10;;
74679;SDS011;63211;48.548;2.704;2024-03-23T07:08:43;0.70;;;0.03;;
74679;SDS011;63211;48.548;2.704;2024-03-23T07:11:10;0.90;;;0.20;;
74679;SDS011;63211;48.548;2.704;2024-03-23T07:13:35;0.40;;;0.10;;
74679;SDS011;63211;48.548;2.704;2024-03-23T07:16:03;1.30;;;0.10;;
74679;SDS011;63211;48.548;2.704;2024-03-23T07:18:29;0.08;;;0.00;;
74679;SDS011;63211;48.548;2.704;2024-03-23T07:20:56;0.38;;;0.10;;
74679;SDS011;63211;48.548;2.704;2024-03-23T07:23:22;0.35;;;0.00;;
74679;SDS011;63211;48.548;2.704;2024-03-23T07:25:58;0.65;;;0.08;;
74679;SDS011;63211;48.548;2.704;2024-03-23T07:28:23;0.30;;;0.10;;
74679;SDS011;63211;48.548;2.704;2024-03-23T07:31:00;1.13;;;0.22;;
74679;SDS011;63211;48.548;2.704;2024-03-23T07:35:54;0.95;;;0.20;;
74679;SDS011;63211;48.548;2.704;2024-03-23T07:38:21;0.47;;;0.10;;
74679;SDS011;63211;48.548;2.704;2024-03-23T07:40:47;0.60;;;0.20;;
74679;SDS011;63211;48.548;2.704;2024-03-23T07:43:15;0.45;;;0.10;;
74679;SDS011;63211;48.548;2.704;2024-03-23T07:45:41;0.50;;;0.10;;
74679;SDS011;63211;48.548;2.704;2024-03-23T07:48:07;4.95;;;0.20;;
74679;SDS011;63211;48.548;2.704;2024-03-23T07:50:35;1.23;;;0.10;;
74679;SDS011;63211;48.548;2.704;2024-03-23T07:53:00;0.68;;;0.10;;
74679;SDS011;63211;48.548;2.704;2024-03-23T07:55:27;0.47;;;0.03;;
74679;SDS011;63211;48.548;2.704;2024-03-23T07:57:52;0.38;;;0.10;;
74679;SDS011;63211;48.548;2.704;2024-03-23T08:00:20;0.52;;;0.10;;
74679;SDS011;63211;48.548;2.704;2024-03-23T08:02:45;0.85;;;0.20;;
74679;SDS011;63211;48.548;2.704;2024-03-23T08:05:12;1.10;;;0.20;;
74679;SDS011;63211;48.548;2.704;2024-03-23T08:07:39;0.75;;;0.20;;
74679;SDS011;63211;48.548;2.704;2024-03-23T08:10:06;0.60;;;0.15;;
74679;SDS011;63211;48.548;2.704;2024-03-23T08:12:31;0.35;;;0.10;;
74679;SDS011;63211;48.548;2.704;2024-03-23T08:14:58;1.52;;;0.40;;
74679;SDS011;63211;48.548;2.704;2024-03-23T08:17:24;0.90;;;0.20;;
74679;SDS011;63211;48.548;2.704;2024-03-23T08:19:50;1.50;;;0.20;;
74679;SDS011;63211;48.548;2.704;2024-03-23T08:22:17;3.53;;;0.30;;
74679;SDS011;63211;48.548;2.704;2024-03-23T08:24:45;3.00;;;0.22;;
74679;SDS011;63211;48.548;2.704;2024-03-23T08:27:11;1.23;;;0.25;;
74679;SDS011;63211;48.548;2.704;2024-03-23T08:29:38;6.47;;;0.45;;
74679;SDS011;63211;48.548;2.704;2024-03-23T08:32:03;1.23;;;0.20;;
74679;SDS011;63211;48.548;2.704;2024-03-23T08:34:30;1.67;;;0.28;;
74679;SDS011;63211;48.548;2.704;2024-03-23T08:36:56;2.63;;;0.30;;
74679;SDS011;63211;48.548;2.704;2024-03-23T08:39:22;2.63;;;0.17;;
74679;SDS011;63211;48.548;2.704;2024-03-23T08:41:50;3.95;;;0.57;;
74679;SDS011;63211;48.548;2.704;2024-03-23T08:44:16;2.33;;;0.30;;
74679;SDS011;63211;48.548;2.704;2024-03-23T08:46:42;4.40;;;0.30;;
74679;SDS011;63211;48.548;2.704;2024-03-23T08:49:09;0.93;;;0.20;;
74679;SDS011;63211;48.548;2.704;2024-03-23T08:51:34;1.85;;;0.40;;
74679;SDS011;63211;48.548;2.704;2024-03-23T08:54:01;0.65;;;0.10;;
74679;SDS011;63211;48.548;2.704;2024-03-23T08:56:27;5.93;;;0.22;;
74679;SDS011;63211;48.548;2.704;2024-03-23T08:58:55;1.73;;;0.28;;
74679;SDS011;63211;48.548;2.704;2024-03-23T09:01:20;0.75;;;0.10;;
74679;SDS011;63211;48.548;2.704;2024-03-23T09:03:47;1.23;;;0.20;;
74679;SDS011;63211;48.548;2.704;2024-03-23T09:06:13;1.05;;;0.40;;
74679;SDS011;63211;48.548;2.704;2024-03-23T09:08:40;1.77;;;0.30;;
74679;SDS011;63211;48.548;2.704;2024-03-23T09:11:07;0.70;;;0.15;;
74679;SDS011;63211;48.548;2.704;2024-03-23T09:13:35;1.33;;;0.20;;
74679;SDS011;63211;48.548;2.704;2024-03-23T09:16:02;1.95;;;0.10;;
74679;SDS011;63211;48.548;2.704;2024-03-23T09:18:31;1.10;;;0.13;;
74679;SDS011;63211;48.548;2.704;2024-03-23T09:20:57;0.20;;;0.00;;
74679;SDS011;63211;48.548;2.704;2024-03-23T09:23:23;0.75;;;0.10;;
74679;SDS011;63211;48.548;2.704;2024-03-23T09:25:49;0.57;;;0.20;;
74679;SDS011;63211;48.548;2.704;2024-03-23T09:28:16;0.57;;;0.10;;
74679;SDS011;63211;48.548;2.704;2024-03-23T09:30:41;0.45;;;0.03;;
74679;SDS011;63211;48.548;2.704;2024-03-23T09:33:09;1.15;;;0.52;;
74679;SDS011;63211;48.548;2.704;2024-03-23T09:35:36;1.15;;;0.10;;
74679;SDS011;63211;48.548;2.704;2024-03-23T09:38:03;0.10;;;0.00;;
74679;SDS011;63211;48.548;2.704;2024-03-23T09:40:29;0.95;;;0.05;;
74679;SDS011;63211;48.548;2.704;2024-03-23T09:42:56;1.08;;;0.20;;
74679;SDS011;63211;48.548;2.704;2024-03-23T09:45:23;0.30;;;0.13;;
74679;SDS011;63211;48.548;2.704;2024-03-23T09:47:53;0.30;;;0.10;;
74679;SDS011;63211;48.548;2.704;2024-03-23T09:50:21;0.30;;;0.00;;
74679;SDS011;63211;48.548;2.704;2024-03-23T09:52:48;0.40;;;0.00;;
74679;SDS011;63211;48.548;2.704;2024-03-23T09:55:13;0.40;;;0.10;;
74679;SDS011;63211;48.548;2.704;2024-03-23T09:57:40;0.55;;;0.10;;
74679;SDS011;63211;48.548;2.704;2024-03-23T10:00:06;1.67;;;0.20;;
74679;SDS011;63211;48.548;2.704;2024-03-23T10:02:34;3.30;;;0.65;;
74679;SDS011;63211;48.548;2.704;2024-03-23T10:05:00;1.52;;;0.25;;
74679;SDS011;63211;48.548;2.704;2024-03-23T10:07:28;1.10;;;0.13;;
74679;SDS011;63211;48.548;2.704;2024-03-23T10:09:54;1.65;;;0.13;;
74679;SDS011;63211;48.548;2.704;2024-03-23T10:12:20;0.52;;;0.10;;
74679;SDS011;63211;48.548;2.704;2024-03-23T10:14:46;0.47;;;0.10;;
74679;SDS011;63211;48.548;2.704;2024-03-23T10:17:14;0.73;;;0.10;;
74679;SDS011;63211;48.548;2.704;2024-03-23T10:19:42;0.65;;;0.17;;
74679;SDS011;63211;48.548;2.704;2024-03-23T10:22:13;1.08;;;0.10;;
74679;SDS011;63211;48.548;2.704;2024-03-23T10:24:44;0.50;;;0.20;;
74679;SDS011;63211;48.548;2.704;2024-03-23T10:27:13;0.80;;;0.13;;
74679;SDS011;63211;48.548;2.704;2024-03-23T10:29:41;0.57;;;0.10;;
74679;SDS011;63211;48.548;2.704;2024-03-23T10:32:08;0.82;;;0.10;;
74679;SDS011;63211;48.548;2.704;2024-03-23T10:34:35;0.30;;;0.10;;
74679;SDS011;63211;48.548;2.704;2024-03-23T10:37:02;0.82;;;0.08;;
74679;SDS011;63211;48.548;2.704;2024-03-23T10:39:29;0.10;;;0.10;;
74679;SDS011;63211;48.548;2.704;2024-03-23T10:41:59;0.63;;;0.20;;
74679;SDS011;63211;48.548;2.704;2024-03-23T10:44:26;0.47;;;0.03;;
74679;SDS011;63211;48.548;2.704;2024-03-23T10:46:56;0.98;;;0.00;;
74679;SDS011;63211;48.548;2.704;2024-03-23T10:49:25;1.20;;;0.03;;
74679;SDS011;63211;48.548;2.704;2024-03-23T10:51:52;0.75;;;0.00;;
74679;SDS011;63211;48.548;2.704;2024-03-23T10:54:18;0.65;;;0.10;;
74679;SDS011;63211;48.548;2.704;2024-03-23T10:56:46;0.80;;;0.15;;
74679;SDS011;63211;48.548;2.704;2024-03-23T10:59:14;1.38;;;0.10;;
74679;SDS011;63211;48.548;2.704;2024-03-23T11:01:53;0.52;;;0.10;;
74679;SDS011;63211;48.548;2.704;2024-03-23T11:04:28;0.47;;;0.08;;
74679;SDS011;63211;48.548;2.704;2024-03-23T11:06:56;0.20;;;0.08;;
74679;SDS011;63211;48.548;2.704;2024-03-23T11:09:40;0.30;;;0.00;;
74679;SDS011;63211;48.548;2.704;2024-03-23T11:12:28;0.40;;;0.10;;
74679;SDS011;63211;48.548;2.704;2024-03-23T11:14:59;2.80;;;0.20;;
74679;SDS011;63211;48.548;2.704;2024-03-23T11:17:28;0.10;;;0.00;;
74679;SDS011;63211;48.548;2.704;2024-03-23T11:19:53;1.92;;;0.10;;
74679;SDS011;63211;48.548;2.704;2024-03-23T11:22:38;0.88;;;0.10;;
74679;SDS011;63211;48.548;2.704;2024-03-23T11:25:11;0.57;;;0.10;;
74679;SDS011;63211;48.548;2.704;2024-03-23T11:27:39;0.93;;;0.13;;
74679;SDS011;63211;48.548;2.704;2024-03-23T11:30:15;1.00;;;0.10;;
74679;SDS011;63211;48.548;2.704;2024-03-23T11:32:43;0.55;;;0.05;;
74679;SDS011;63211;48.548;2.704;2024-03-23T11:35:10;1.67;;;0.10;;
74679;SDS011;63211;48.548;2.704;2024-03-23T11:37:37;0.50;;;0.00;;
74679;SDS011;63211;48.548;2.704;2024-03-23T11:40:18;0.98;;;0.20;;
74679;SDS011;63211;48.548;2.704;2024-03-23T11:42:45;2.05;;;0.20;;
74679;SDS011;63211;48.548;2.704;2024-03-23T11:45:11;0.15;;;0.10;;
74679;SDS011;63211;48.548;2.704;2024-03-23T11:47:40;1.23;;;0.10;;
74679;SDS011;63211;48.548;2.704;2024-03-23T11:50:06;0.40;;;0.10;;
74679;SDS011;63211;48.548;2.704;2024-03-23T11:52:33;0.85;;;0.10;;
74679;SDS011;63211;48.548;2.704;2024-03-23T11:55:03;0.17;;;0.00;;
74679;SDS011;63211;48.548;2.704;2024-03-23T11:57:30;0.30;;;0.10;;
74679;SDS011;63211;48.548;2.704;2024-03-23T11:59:55;1.60;;;0.30;;
74679;SDS011;63211;48.548;2.704;2024-03-23T12:02:22;0.15;;;0.00;;
74679;SDS011;63211;48.548;2.704;2024-03-23T12:04:49;4.38;;;0.30;;
74679;SDS011;63211;48.548;2.704;2024-03-23T12:07:16;0.73;;;0.25;;
74679;SDS011;63211;48.548;2.704;2024-03-23T12:09:43;1.52;;;0.10;;
74679;SDS011;63211;48.548;2.704;2024-03-23T12:12:13;1.00;;;0.28;;
74679;SDS011;63211;48.548;2.704;2024-03-23T12:14:40;1.38;;;0.00;;
74679;SDS011;63211;48.548;2.704;2024-03-23T12:17:07;2.80;;;0.80;;
74679;SDS011;63211;48.548;2.704;2024-03-23T12:19:34;2.22;;;1.02;;
74679;SDS011;63211;48.548;2.704;2024-03-23T12:22:02;7.68;;;4.97;;
74679;SDS011;63211;48.548;2.704;2024-03-23T12:24:28;18.27;;;11.35;;
74679;SDS011;63211;48.548;2.704;2024-03-23T12:26:59;13.00;;;7.32;;
74679;SDS011;63211;48.548;2.704;2024-03-23T12:29:28;9.38;;;4.82;;
74679;SDS011;63211;48.548;2.704;2024-03-23T12:31:56;9.82;;;3.05;;
74679;SDS011;63211;48.548;2.704;2024-03-23T12:34:22;5.28;;;2.33;;
74679;SDS011;63211;48.548;2.704;2024-03-23T12:36:49;6.07;;;2.13;;
74679;SDS011;63211;48.548;2.704;2024-03-23T12:39:16;5.43;;;1.80;;
74679;SDS011;63211;48.548;2.704;2024-03-23T12:41:43;3.92;;;1.83;;
74679;SDS011;63211;48.548;2.704;2024-03-23T12:44:09;4.18;;;1.38;;
74679;SDS011;63211;48.548;2.704;2024-03-23T12:46:37;4.00;;;1.38;;
74679;SDS011;63211;48.548;2.704;2024-03-23T12:49:02;3.13;;;0.82;;
74679;SDS011;63211;48.548;2.704;2024-03-23T12:51:29;2.97;;;1.10;;
74679;SDS011;63211;48.548;2.704;2024-03-23T12:53:54;1.63;;;0.70;;
74679;SDS011;63211;48.548;2.704;2024-03-23T12:56:22;2.45;;;0.60;;
74679;SDS011;63211;48.548;2.704;2024-03-23T12:58:48;2.03;;;0.75;;
74679;SDS011;63211;48.548;2.704;2024-03-23T13:01:16;4.60;;;0.80;;
74679;SDS011;63211;48.548;2.704;2024-03-23T13:03:42;2.20;;;0.80;;
74679;SDS011;63211;48.548;2.704;2024-03-23T13:06:09;2.45;;;0.60;;
74679;SDS011;63211;48.548;2.704;2024-03-23T13:08:35;1.15;;;0.50;;
74679;SDS011;63211;48.548;2.704;2024-03-23T13:11:02;1.00;;;0.50;;
74679;SDS011;63211;48.548;2.704;2024-03-23T13:13:29;4.88;;;0.50;;
74679;SDS011;63211;48.548;2.704;2024-03-23T13:15:57;3.25;;;0.50;;
74679;SDS011;63211;48.548;2.704;2024-03-23T13:18:22;0.80;;;0.40;;
74679;SDS011;63211;48.548;2.704;2024-03-23T13:20:49;0.90;;;0.20;;
74679;SDS011;63211;48.548;2.704;2024-03-23T13:23:14;3.03;;;0.38;;
74679;SDS011;63211;48.548;2.704;2024-03-23T13:25:41;1.05;;;0.30;;
74679;SDS011;63211;48.548;2.704;2024-03-23T13:28:14;1.70;;;0.60;;
74679;SDS011;63211;48.548;2.704;2024-03-23T13:30:50;1.50;;;0.30;;
74679;SDS011;63211;48.548;2.704;2024-03-23T13:33:16;1.10;;;0.30;;
74679;SDS011;63211;48.548;2.704;2024-03-23T13:35:48;1.88;;;0.40;;
74679;SDS011;63211;48.548;2.704;2024-03-23T13:38:14;1.15;;;0.35;;
74679;SDS011;63211;48.548;2.704;2024-03-23T13:40:48;1.27;;;0.40;;
74679;SDS011;63211;48.548;2.704;2024-03-23T13:43:15;1.38;;;0.38;;
74679;SDS011;63211;48.548;2.704;2024-03-23T13:45:41;4.35;;;0.40;;
74679;SDS011;63211;48.548;2.704;2024-03-23T13:48:08;0.68;;;0.28;;
74679;SDS011;63211;48.548;2.704;2024-03-23T13:50:35;0.73;;;0.10;;
74679;SDS011;63211;48.548;2.704;2024-03-23T13:53:00;0.73;;;0.25;;
74679;SDS011;63211;48.548;2.704;2024-03-23T13:55:27;1.85;;;0.20;;
74679;SDS011;63211;48.548;2.704;2024-03-23T13:57:53;1.13;;;0.20;;
74679;SDS011;63211;48.548;2.704;2024-03-23T14:00:19;2.67;;;0.20;;
74679;SDS011;63211;48.548;2.704;2024-03-23T14:02:45;0.95;;;0.20;;
74679;SDS011;63211;48.548;2.704;2024-03-23T14:05:13;0.10;;;0.00;;
74679;SDS011;63211;48.548;2.704;2024-03-23T14:07:39;0.50;;;0.10;;
74679;SDS011;63211;48.548;2.704;2024-03-23T14:10:06;1.38;;;0.22;;
74679;SDS011;63211;48.548;2.704;2024-03-23T14:12:32;0.47;;;0.10;;
74679;SDS011;63211;48.548;2.704;2024-03-23T14:14:59;2.08;;;0.10;;
74679;SDS011;63211;48.548;2.704;2024-03-23T14:17:24;0.85;;;0.10;;
74679;SDS011;63211;48.548;2.704;2024-03-23T14:19:52;0.20;;;0.10;;
74679;SDS011;63211;48.548;2.704;2024-03-23T14:22:20;0.60;;;0.10;;
74679;SDS011;63211;48.548;2.704;2024-03-23T14:24:47;1.50;;;0.03;;
74679;SDS011;63211;48.548;2.704;2024-03-23T14:27:13;1.15;;;0.10;;
74679;SDS011;63211;48.548;2.704;2024-03-23T14:29:40;0.25;;;0.10;;
74679;SDS011;63211;48.548;2.704;2024-03-23T14:32:05;1.05;;;0.32;;
74679;SDS011;63211;48.548;2.704;2024-03-23T14:34:32;1.02;;;0.10;;
74679;SDS011;63211;48.548;2.704;2024-03-23T14:36:58;1.83;;;0.08;;
74679;SDS011;63211;48.548;2.704;2024-03-23T14:39:26;0.73;;;0.20;;
74679;SDS011;63211;48.548;2.704;2024-03-23T14:41:52;1.92;;;0.10;;
74679;SDS011;63211;48.548;2.704;2024-03-23T14:44:18;0.70;;;0.10;;
74679;SDS011;63211;48.548;2.704;2024-03-23T14:46:44;0.03;;;0.00;;
74679;SDS011;63211;48.548;2.704;2024-03-23T14:49:14;1.35;;;0.10;;
74679;SDS011;63211;48.548;2.704;2024-03-23T14:51:41;0.93;;;0.10;;
74679;SDS011;63211;48.548;2.704;2024-03-23T14:54:08;0.65;;;0.15;;
74679;SDS011;63211;48.548;2.704;2024-03-23T14:56:35;0.08;;;0.05;;
74679;SDS011;63211;48.548;2.704;2024-03-23T14:59:02;0.30;;;0.10;;
74679;SDS011;63211;48.548;2.704;2024-03-23T15:01:28;1.95;;;0.17;;
74679;SDS011;63211;48.548;2.704;2024-03-23T15:03:54;0.17;;;0.00;;
74679;SDS011;63211;48.548;2.704;2024-03-23T15:06:20;1.10;;;0.15;;
74679;SDS011;63211;48.548;2.704;2024-03-23T15:08:46;0.75;;;0.20;;
74679;SDS011;63211;48.548;2.704;2024-03-23T15:11:12;0.75;;;0.00;;
74679;SDS011;63211;48.548;2.704;2024-03-23T15:13:40;0.95;;;0.10;;
74679;SDS011;63211;48.548;2.704;2024-03-23T15:16:06;0.20;;;0.10;;
74679;SDS011;63211;48.548;2.704;2024-03-23T15:18:32;1.33;;;0.03;;
74679;SDS011;63211;48.548;2.704;2024-03-23T15:20:59;2.03;;;0.05;;
74679;SDS011;63211;48.548;2.704;2024-03-23T15:23:28;0.52;;;0.00;;
74679;SDS011;63211;48.548;2.704;2024-03-23T15:25:54;0.38;;;0.08;;
74679;SDS011;63211;48.548;2.704;2024-03-23T15:28:20;0.32;;;0.03;;
74679;SDS011;63211;48.548;2.704;2024-03-23T15:30:48;1.35;;;0.10;;
74679;SDS011;63211;48.548;2.704;2024-03-23T15:33:14;0.57;;;0.10;;
74679;SDS011;63211;48.548;2.704;2024-03-23T15:35:40;0.57;;;0.10;;
74679;SDS011;63211;48.548;2.704;2024-03-23T15:38:06;0.25;;;0.00;;
74679;SDS011;63211;48.548;2.704;2024-03-23T15:40:32;0.00;;;0.00;;
74679;SDS011;63211;48.548;2.704;2024-03-23T15:42:58;2.15;;;0.30;;